createdAt,value
2022-10-25T00:01:03.582Z,2.75
2022-10-25T00:03:34.610Z,2.85
2022-10-25T00:06:04.893Z,2.65
2022-10-25T00:08:33.444Z,2.38
2022-10-25T00:11:02.059Z,2.97
2022-10-25T00:13:30.663Z,3.63
2022-10-25T00:15:59.389Z,2.53
2022-10-25T00:18:28.051Z,3.33
2022-10-25T00:20:58.094Z,1.45
2022-10-25T00:23:26.724Z,2.88
2022-10-25T00:26:02.962Z,2.70
2022-10-25T00:28:31.541Z,2.45
2022-10-25T00:31:03.283Z,2.55
2022-10-25T00:33:32.471Z,2.22
2022-10-25T00:36:07.564Z,1.88
2022-10-25T00:38:36.870Z,2.08
2022-10-25T00:41:07.221Z,2.00
2022-10-25T00:43:38.083Z,1.85
2022-10-25T00:46:12.796Z,3.08
2022-10-25T00:48:44.100Z,3.22
2022-10-25T00:51:14.192Z,2.08
2022-10-25T00:53:44.169Z,1.60
2022-10-25T00:56:18.810Z,2.63
2022-10-25T00:58:51.109Z,4.25
2022-10-25T01:01:20.509Z,2.35
2022-10-25T01:03:51.664Z,3.38
2022-10-25T01:06:29.751Z,2.00
2022-10-25T01:08:59.244Z,1.75
2022-10-25T01:11:27.812Z,1.92
2022-10-25T01:13:58.814Z,3.13
2022-10-25T01:16:34.283Z,2.58
2022-10-25T01:19:18.419Z,1.63
2022-10-25T01:21:51.483Z,2.58
2022-10-25T01:24:54.761Z,2.92
2022-10-25T01:27:50.548Z,2.13
2022-10-25T01:30:22.872Z,2.42
2022-10-25T01:33:06.444Z,2.40
2022-10-25T01:35:44.321Z,3.10
2022-10-25T01:38:28.904Z,2.60
2022-10-25T01:41:08.793Z,1.20
2022-10-25T01:43:48.701Z,2.72
2022-10-25T01:46:23.973Z,1.35
2022-10-25T01:49:00.951Z,3.40
2022-10-25T01:51:30.080Z,2.53
2022-10-25T01:53:58.842Z,1.63
2022-10-25T01:56:31.501Z,1.88
2022-10-25T01:59:26.665Z,2.33
2022-10-25T02:02:07.204Z,2.10
2022-10-25T02:04:51.814Z,1.50
2022-10-25T02:07:28.250Z,1.67
2022-10-25T02:12:49.197Z,4.28
2022-10-25T02:15:26.093Z,1.48
2022-10-25T02:18:01.020Z,2.63
2022-10-25T02:20:36.193Z,1.65
2022-10-25T02:23:07.393Z,2.13
2022-10-25T02:25:39.144Z,1.60
2022-10-25T02:28:14.413Z,2.53
2022-10-25T02:30:45.640Z,2.70
2022-10-25T02:33:15.761Z,2.30
2022-10-25T02:35:45.760Z,2.35
2022-10-25T02:38:14.561Z,1.75
2022-10-25T02:40:43.170Z,2.57
2022-10-25T02:43:13.269Z,1.70
2022-10-25T02:45:41.898Z,2.75
2022-10-25T02:48:10.429Z,1.35
2022-10-25T02:50:39.017Z,1.58
2022-10-25T02:53:09.034Z,3.47
2022-10-25T02:55:38.984Z,1.83
2022-10-25T02:58:07.570Z,1.65
2022-10-25T03:00:36.231Z,1.95
2022-10-25T03:03:05.223Z,1.80
2022-10-25T03:06:24.257Z,1.73
2022-10-25T03:09:19.980Z,1.15
2022-10-25T03:11:53.804Z,1.42
2022-10-25T03:14:22.373Z,2.22
2022-10-25T03:17:16.433Z,1.52
2022-10-25T03:20:11.305Z,1.08
2022-10-25T03:22:42.734Z,0.95
2022-10-25T03:25:13.181Z,3.08
2022-10-25T03:27:42.980Z,1.25
2022-10-25T03:30:13.922Z,1.73
2022-10-25T03:33:07.645Z,2.13
2022-10-25T03:35:37.534Z,1.30
2022-10-25T03:38:06.198Z,1.43
2022-10-25T03:40:36.266Z,2.43
2022-10-25T03:43:30.276Z,1.88
2022-10-25T03:46:00.330Z,1.55
2022-10-25T03:48:29.025Z,0.85
2022-10-25T03:50:58.505Z,0.65
2022-10-25T03:53:33.687Z,1.92
2022-10-25T03:56:04.519Z,1.17
2022-10-25T03:58:58.585Z,1.10
2022-10-25T04:01:27.309Z,1.10
2022-10-25T04:04:02.024Z,1.33
2022-10-25T04:09:04.337Z,3.83
2022-10-25T04:11:59.523Z,1.02
2022-10-25T04:14:53.788Z,1.45
2022-10-25T04:17:25.053Z,2.15
2022-10-25T04:19:53.627Z,1.55
2022-10-25T04:22:47.564Z,1.42
2022-10-25T04:25:16.266Z,0.73
2022-10-25T04:27:46.710Z,2.20
2022-10-25T04:30:17.637Z,0.82
2022-10-25T04:32:46.535Z,1.40
2022-10-25T04:37:47.540Z,1.13
2022-10-25T04:40:17.483Z,1.65
2022-10-25T04:42:51.377Z,1.75
2022-10-25T04:45:21.611Z,1.42
2022-10-25T04:47:50.345Z,2.03
2022-10-25T04:50:45.303Z,1.67
2022-10-25T04:53:39.598Z,1.08
2022-10-25T04:56:15.279Z,1.05
2022-10-25T04:58:45.240Z,1.33
2022-10-25T05:01:18.706Z,1.73
2022-10-25T05:04:12.426Z,2.35
2022-10-25T05:06:46.129Z,1.95
2022-10-25T05:09:14.807Z,1.25
2022-10-25T05:12:33.329Z,2.10
2022-10-25T05:15:24.347Z,2.25
2022-10-25T05:17:58.558Z,1.40
2022-10-25T05:20:55.597Z,1.75
2022-10-25T05:23:26.268Z,1.65
2022-10-25T05:26:03.020Z,2.55
2022-10-25T05:28:33.417Z,2.72
2022-10-25T05:34:11.097Z,3.33
2022-10-25T05:37:04.657Z,1.90
2022-10-25T05:42:06.739Z,1.58
2022-10-25T05:44:37.027Z,1.90
2022-10-25T05:47:07.549Z,1.35
2022-10-25T05:50:02.659Z,1.33
2022-10-25T05:52:32.906Z,2.60
2022-10-25T05:55:01.628Z,1.17
2022-10-25T05:57:57.128Z,2.20
2022-10-25T06:00:26.007Z,2.95
2022-10-25T06:02:56.047Z,5.28
2022-10-25T06:05:49.476Z,4.03
2022-10-25T06:08:43.717Z,2.58
2022-10-25T06:11:39.088Z,2.67
2022-10-25T06:14:12.468Z,2.58
2022-10-25T06:17:08.403Z,2.17
2022-10-25T06:20:04.117Z,2.17
2022-10-25T06:22:57.906Z,4.00
2022-10-25T06:25:26.627Z,2.70
2022-10-25T06:27:55.851Z,1.75
2022-10-25T06:30:24.450Z,2.15
2022-10-25T06:32:57.672Z,1.52
2022-10-25T06:35:30.137Z,1.92
2022-10-25T06:38:23.739Z,1.65
2022-10-25T06:41:20.292Z,2.33
2022-10-25T06:44:14.366Z,1.02
2022-10-25T06:47:17.525Z,1.60
2022-10-25T06:50:11.342Z,1.35
2022-10-25T06:55:36.755Z,1.70
2022-10-25T06:58:05.289Z,1.30
2022-10-25T07:00:58.299Z,2.35
2022-10-25T07:03:35.382Z,1.70
2022-10-25T07:06:35.908Z,2.92
2022-10-25T07:09:31.809Z,1.33
2022-10-25T07:12:25.597Z,1.75
2022-10-25T07:14:58.313Z,1.55
2022-10-25T07:17:27.172Z,2.55
2022-10-25T07:20:00.459Z,4.07
2022-10-25T07:22:28.940Z,1.95
2022-10-25T07:25:24.009Z,4.00
2022-10-25T07:28:01.518Z,2.30
2022-10-25T07:30:55.567Z,2.33
2022-10-25T07:33:27.305Z,3.42
2022-10-25T07:36:16.671Z,2.70
2022-10-25T07:38:46.009Z,2.45
2022-10-25T07:41:21.058Z,2.10
2022-10-25T07:44:17.454Z,1.90
2022-10-25T07:47:12.609Z,0.85
2022-10-25T07:50:07.028Z,1.83
2022-10-25T07:53:00.741Z,2.72
2022-10-25T07:55:35.093Z,2.05
2022-10-25T07:58:07.070Z,1.17
2022-10-25T08:01:04.095Z,2.40
2022-10-25T08:03:33.359Z,1.88
2022-10-25T08:06:03.028Z,1.02
2022-10-25T08:11:00.493Z,1.55
2022-10-25T08:13:30.331Z,2.10
2022-10-25T08:15:58.900Z,1.77
2022-10-25T08:18:27.872Z,1.58
2022-10-25T08:21:02.478Z,1.33
2022-10-25T08:23:32.620Z,1.20
2022-10-25T08:26:01.304Z,1.25
2022-10-25T08:28:31.835Z,1.63
2022-10-25T08:31:01.446Z,1.50
2022-10-25T08:33:30.730Z,1.63
2022-10-25T08:36:02.290Z,1.20
2022-10-25T08:38:31.074Z,2.95
2022-10-25T08:41:07.077Z,2.20
2022-10-25T08:43:55.767Z,0.60
2022-10-25T08:46:29.049Z,1.07
2022-10-25T08:49:10.754Z,1.25
2022-10-25T08:51:42.190Z,1.30
2022-10-25T08:54:22.799Z,2.70
2022-10-25T08:57:10.686Z,1.17
2022-10-25T08:59:51.960Z,1.23
2022-10-25T09:02:35.123Z,1.50
2022-10-25T09:05:03.959Z,1.20
2022-10-25T09:07:52.153Z,1.13
2022-10-25T09:10:37.309Z,1.27
2022-10-25T09:13:43.759Z,0.93
2022-10-25T09:16:50.280Z,0.88
2022-10-25T09:19:33.850Z,0.80
2022-10-25T09:22:30.422Z,0.90
2022-10-25T09:25:14.051Z,0.68
2022-10-25T09:27:53.622Z,1.17
2022-10-25T09:30:22.819Z,1.13
2022-10-25T09:32:56.966Z,1.10
2022-10-25T09:35:29.792Z,1.20
2022-10-25T09:38:03.761Z,1.02
2022-10-25T09:44:01.743Z,1.33
2022-10-25T09:46:38.953Z,0.60
2022-10-25T09:49:38.901Z,1.58
2022-10-25T09:52:21.019Z,1.52
2022-10-25T09:55:32.731Z,1.75
2022-10-25T09:58:30.604Z,1.02
2022-10-25T10:01:06.352Z,1.27
2022-10-25T10:03:38.191Z,0.70
2022-10-25T10:06:17.322Z,1.23
2022-10-25T10:08:52.692Z,1.52
2022-10-25T10:11:24.984Z,1.80
2022-10-25T10:14:28.310Z,1.17
2022-10-25T10:17:24.752Z,1.80
2022-10-25T10:20:17.993Z,0.52
2022-10-25T10:22:53.676Z,0.93
2022-10-25T10:25:26.881Z,1.48
2022-10-25T10:27:59.761Z,0.73
2022-10-25T10:30:31.181Z,0.95
2022-10-25T10:33:03.321Z,0.57
2022-10-25T10:35:34.644Z,1.30
2022-10-25T10:38:16.216Z,1.05
2022-10-25T10:40:47.872Z,1.75
2022-10-25T10:43:31.195Z,0.50
2022-10-25T10:46:05.811Z,0.68
2022-10-25T10:48:41.883Z,1.13
2022-10-25T10:51:32.021Z,0.55
2022-10-25T10:54:23.218Z,0.52
2022-10-25T10:57:00.946Z,0.70
2022-10-25T10:59:39.127Z,0.50
2022-10-25T11:02:23.928Z,0.50
2022-10-25T11:04:54.871Z,0.63
2022-10-25T11:07:30.693Z,0.55
2022-10-25T11:10:21.235Z,0.50
2022-10-25T11:13:07.840Z,0.70
2022-10-25T11:15:50.797Z,0.50
2022-10-25T11:18:28.664Z,0.98
2022-10-25T11:21:06.367Z,1.05
2022-10-25T11:23:46.916Z,0.60
2022-10-25T11:26:25.247Z,0.45
2022-10-25T11:29:04.126Z,0.40
2022-10-25T11:31:47.456Z,0.50
2022-10-25T11:34:25.669Z,0.30
2022-10-25T11:37:07.842Z,0.35
2022-10-25T11:39:53.215Z,0.40
2022-10-25T11:42:58.069Z,0.45
2022-10-25T11:45:52.254Z,0.40
2022-10-25T11:48:54.128Z,0.40
2022-10-25T11:51:32.219Z,0.60
2022-10-25T11:54:13.815Z,0.45
2022-10-25T11:56:55.531Z,0.50
2022-10-25T11:59:35.941Z,0.60
2022-10-25T12:02:22.654Z,0.50
2022-10-25T12:05:15.209Z,0.60
2022-10-25T12:07:51.468Z,0.73
2022-10-25T12:10:28.795Z,0.55
2022-10-25T12:13:02.349Z,0.50
2022-10-25T12:15:39.846Z,0.82
2022-10-25T12:18:15.907Z,0.65
2022-10-25T12:20:47.897Z,0.90
2022-10-25T12:23:20.277Z,0.30
2022-10-25T12:25:52.099Z,0.30
2022-10-25T12:28:29.328Z,0.43
2022-10-25T12:31:03.626Z,0.40
2022-10-25T12:33:38.312Z,0.40
2022-10-25T12:36:13.650Z,0.40
2022-10-25T12:38:42.938Z,0.73
2022-10-25T12:41:19.372Z,1.60
2022-10-25T12:44:04.455Z,0.60
2022-10-25T12:46:55.058Z,0.82
2022-10-25T12:49:58.633Z,0.47
2022-10-25T12:52:34.056Z,0.40
2022-10-25T12:55:31.726Z,0.40
2022-10-25T12:58:14.318Z,0.77
2022-10-25T13:01:01.923Z,0.70
2022-10-25T13:04:12.795Z,0.57
2022-10-25T13:06:45.916Z,0.60
2022-10-25T13:09:17.435Z,0.77
2022-10-25T13:12:01.796Z,0.30
2022-10-25T13:14:33.521Z,0.47
2022-10-25T13:17:23.960Z,0.75
2022-10-25T13:19:54.986Z,0.73
2022-10-25T13:22:37.787Z,0.77
2022-10-25T13:25:19.648Z,0.68
2022-10-25T13:28:10.002Z,0.30
2022-10-25T13:30:38.774Z,0.50
2022-10-25T13:33:33.931Z,0.40
2022-10-25T13:36:05.779Z,0.57
2022-10-25T13:38:39.943Z,0.55
2022-10-25T13:41:15.495Z,0.52
2022-10-25T13:43:59.865Z,0.60
2022-10-25T13:46:34.088Z,1.10
2022-10-25T13:49:06.144Z,0.30
2022-10-25T13:51:34.618Z,0.40
2022-10-25T13:54:11.647Z,0.63
2022-10-25T13:56:52.635Z,0.50
2022-10-25T13:59:56.943Z,0.40
2022-10-25T14:02:25.815Z,0.50
2022-10-25T14:04:54.267Z,0.68
2022-10-25T14:07:44.840Z,0.47
2022-10-25T14:10:30.429Z,0.50
2022-10-25T14:13:16.400Z,0.50
2022-10-25T14:15:55.888Z,0.40
2022-10-25T14:20:57.476Z,0.63
2022-10-25T14:23:33.358Z,0.77
2022-10-25T14:26:06.608Z,0.50
2022-10-25T14:28:36.389Z,0.50
2022-10-25T14:31:07.171Z,0.43
2022-10-25T14:33:40.890Z,0.50
2022-10-25T14:36:13.126Z,0.60
2022-10-25T14:38:52.580Z,0.70
2022-10-25T14:41:25.497Z,0.60
2022-10-25T14:43:54.725Z,0.55
2022-10-25T14:46:24.551Z,0.30
2022-10-25T14:48:58.139Z,0.40
2022-10-25T14:51:29.809Z,0.55
2022-10-25T14:54:02.957Z,0.63
2022-10-25T14:56:37.537Z,0.63
2022-10-25T14:59:17.625Z,0.43
2022-10-25T15:01:54.364Z,0.40
2022-10-25T15:04:34.389Z,0.50
2022-10-25T15:07:04.511Z,0.50
2022-10-25T15:09:49.032Z,1.27
2022-10-25T15:12:21.647Z,0.40
2022-10-25T15:14:50.256Z,0.50
2022-10-25T15:17:28.620Z,0.40
2022-10-25T15:20:03.066Z,0.40
2022-10-25T15:22:34.345Z,0.75
2022-10-25T15:25:02.915Z,0.50
2022-10-25T15:27:41.960Z,0.38
2022-10-25T15:30:36.267Z,0.77
2022-10-25T15:33:09.630Z,0.30
2022-10-25T15:35:47.689Z,0.50
2022-10-25T15:38:17.989Z,0.32
2022-10-25T15:40:47.348Z,0.35
2022-10-25T15:43:17.537Z,0.55
2022-10-25T15:45:47.028Z,0.30
2022-10-25T15:48:17.595Z,0.35
2022-10-25T15:50:50.238Z,0.47
2022-10-25T15:53:18.763Z,0.30
2022-10-25T15:55:47.516Z,0.30
2022-10-25T15:58:17.607Z,0.50
2022-10-25T16:00:48.301Z,0.77
2022-10-25T16:03:22.548Z,0.30
2022-10-25T16:05:52.336Z,0.30
2022-10-25T16:10:49.328Z,0.60
2022-10-25T16:13:27.597Z,0.40
2022-10-25T16:15:56.337Z,0.47
2022-10-25T16:20:58.188Z,0.30
2022-10-25T16:23:28.349Z,0.55
2022-10-25T16:25:57.273Z,0.45
2022-10-25T16:28:27.045Z,0.40
2022-10-25T16:30:55.543Z,0.95
2022-10-25T16:33:23.969Z,0.30
2022-10-25T16:35:52.980Z,0.55
2022-10-25T16:38:21.459Z,0.30
2022-10-25T16:40:50.101Z,1.60
2022-10-25T16:43:19.048Z,0.47
2022-10-25T16:45:49.030Z,0.50
2022-10-25T16:48:17.579Z,0.80
2022-10-25T16:50:46.176Z,0.75
2022-10-25T16:53:16.351Z,0.55
2022-10-25T16:55:45.013Z,0.40
2022-10-25T16:58:13.558Z,0.50
2022-10-25T17:00:42.376Z,0.93
2022-10-25T17:03:12.720Z,0.47
2022-10-25T17:05:41.330Z,0.70
2022-10-25T17:08:09.835Z,1.13
2022-10-25T17:10:42.472Z,0.82
2022-10-25T17:13:16.063Z,0.70
2022-10-25T17:15:44.750Z,0.45
2022-10-25T17:18:19.615Z,0.50
2022-10-25T17:20:49.288Z,0.32
2022-10-25T17:25:46.009Z,0.95
2022-10-25T17:28:14.650Z,0.65
2022-10-25T17:30:43.449Z,0.40
2022-10-25T17:33:12.106Z,0.63
2022-10-25T17:35:43.908Z,0.50
2022-10-25T17:38:12.909Z,0.40
2022-10-25T17:40:42.089Z,1.27
2022-10-25T17:43:11.888Z,2.25
2022-10-25T17:48:08.689Z,1.98
2022-10-25T17:50:41.104Z,1.30
2022-10-25T17:53:11.635Z,0.45
2022-10-25T17:55:41.518Z,0.82
2022-10-25T17:58:10.058Z,1.17
2022-10-25T18:00:38.492Z,0.90
2022-10-25T18:03:07.037Z,0.80
2022-10-25T18:05:36.130Z,0.80
2022-10-25T18:08:04.697Z,0.60
2022-10-25T18:10:36.309Z,0.40
2022-10-25T18:13:04.829Z,1.55
2022-10-25T18:15:35.286Z,2.35
2022-10-25T18:18:03.795Z,1.23
2022-10-25T18:20:32.719Z,1.02
2022-10-25T18:23:01.327Z,1.25
2022-10-25T18:25:29.895Z,1.45
2022-10-25T18:27:59.896Z,1.45
2022-10-25T18:30:28.609Z,1.48
2022-10-25T18:32:57.147Z,1.48
2022-10-25T18:35:25.648Z,0.60
2022-10-25T18:37:54.203Z,1.88
2022-10-25T18:40:22.887Z,1.30
2022-10-25T18:42:51.416Z,2.33
2022-10-25T18:45:21.500Z,2.17
2022-10-25T18:47:53.486Z,0.82
2022-10-25T18:50:22.049Z,0.95
2022-10-25T18:52:50.575Z,1.92
2022-10-25T18:55:21.689Z,0.80
2022-10-25T18:57:50.531Z,2.05
2022-10-25T19:00:23.117Z,2.30
2022-10-25T19:02:54.169Z,1.90
2022-10-25T19:05:23.436Z,1.20
2022-10-25T19:07:52.539Z,0.93
2022-10-25T19:10:21.203Z,1.42
2022-10-25T19:12:49.720Z,2.00
2022-10-25T19:15:18.358Z,1.92
2022-10-25T19:17:52.098Z,1.92
2022-10-25T19:20:20.709Z,1.90
2022-10-25T19:22:49.690Z,1.52
2022-10-25T19:25:21.538Z,0.98
2022-10-25T19:27:52.729Z,1.48
2022-10-25T19:30:21.336Z,0.77
2022-10-25T19:32:51.500Z,2.10
2022-10-25T19:35:20.969Z,1.23
2022-10-25T19:37:50.782Z,1.45
2022-10-25T19:40:19.718Z,1.58
2022-10-25T19:42:48.250Z,1.45
2022-10-25T19:45:16.849Z,1.30
2022-10-25T19:47:46.181Z,1.30
2022-10-25T19:50:16.488Z,2.05
2022-10-25T19:52:46.697Z,0.88
2022-10-25T19:55:15.127Z,1.08
2022-10-25T19:57:43.827Z,2.10
2022-10-25T20:00:13.703Z,1.67
2022-10-25T20:02:42.431Z,2.80
2022-10-25T20:07:46.429Z,1.30
2022-10-25T20:10:15.618Z,2.55
2022-10-25T20:12:44.317Z,2.10
2022-10-25T20:15:17.131Z,0.93
2022-10-25T20:17:45.943Z,1.27
2022-10-25T20:20:14.706Z,1.00
2022-10-25T20:22:43.681Z,1.55
2022-10-25T20:27:42.316Z,1.08
2022-10-25T20:30:11.455Z,1.13
2022-10-25T20:32:40.030Z,0.87
2022-10-25T20:35:09.036Z,2.38
2022-10-25T20:37:37.671Z,1.42
2022-10-25T20:40:08.069Z,1.25
2022-10-25T20:42:38.157Z,1.48
2022-10-25T20:45:07.395Z,1.23
2022-10-25T20:47:35.945Z,2.13
2022-10-25T20:50:04.748Z,3.13
2022-10-25T20:52:34.776Z,2.53
2022-10-25T20:55:04.257Z,2.53
2022-10-25T20:57:33.760Z,2.20
2022-10-25T21:05:00.800Z,2.55
2022-10-25T21:07:31.297Z,1.98
2022-10-25T21:10:00.221Z,1.88
2022-10-25T21:12:28.827Z,2.40
2022-10-25T21:14:57.566Z,1.73
2022-10-25T21:17:27.468Z,0.85
2022-10-25T21:19:56.070Z,3.03
2022-10-25T21:22:24.760Z,2.47
2022-10-25T21:24:53.447Z,2.43
2022-10-25T21:27:21.959Z,2.75
2022-10-25T21:29:51.021Z,2.33
2022-10-25T21:32:19.551Z,2.15
2022-10-25T21:34:49.630Z,1.48
2022-10-25T21:37:18.233Z,2.35
2022-10-25T21:39:48.088Z,1.27
2022-10-25T21:42:16.698Z,1.83
2022-10-25T21:44:45.269Z,2.00
2022-10-25T21:47:13.938Z,1.58
2022-10-25T21:49:42.369Z,1.70
2022-10-25T21:52:12.799Z,1.95
2022-10-25T21:54:41.380Z,2.33
2022-10-25T21:57:10.476Z,3.00
2022-10-25T21:59:39.038Z,2.45
2022-10-25T22:02:07.926Z,1.15
2022-10-25T22:04:36.566Z,0.90
2022-10-25T22:07:05.201Z,2.08
2022-10-25T22:09:35.113Z,1.20
2022-10-25T22:12:03.950Z,1.88
2022-10-25T22:14:32.776Z,0.68
2022-10-25T22:17:01.295Z,0.73
2022-10-25T22:19:29.870Z,2.05
2022-10-25T22:21:58.500Z,0.77
2022-10-25T22:24:27.097Z,0.85
2022-10-25T22:26:57.119Z,1.00
2022-10-25T22:29:25.755Z,1.13
2022-10-25T22:31:54.299Z,1.60
2022-10-25T22:34:22.829Z,1.10
2022-10-25T22:36:51.790Z,1.02
2022-10-25T22:39:20.278Z,2.30
2022-10-25T22:41:53.098Z,1.00
2022-10-25T22:44:23.224Z,0.93
2022-10-25T22:46:51.765Z,0.77
2022-10-25T22:49:21.987Z,1.63
2022-10-25T22:51:50.409Z,0.93
2022-10-25T22:54:18.938Z,1.70
2022-10-25T22:56:47.569Z,2.15
2022-10-25T22:59:16.076Z,1.30
2022-10-25T23:01:45.926Z,1.02
2022-10-25T23:04:14.916Z,1.55
2022-10-25T23:06:43.378Z,2.15
2022-10-25T23:09:12.599Z,0.75
2022-10-25T23:11:42.071Z,0.60
2022-10-25T23:14:14.997Z,2.90
2022-10-25T23:16:48.007Z,0.80
2022-10-25T23:19:16.711Z,2.47
2022-10-25T23:21:45.303Z,1.58
2022-10-25T23:24:13.995Z,0.55
2022-10-25T23:26:42.570Z,0.65
2022-10-25T23:29:13.646Z,0.90
2022-10-25T23:31:42.309Z,0.93
2022-10-25T23:34:12.613Z,1.45
2022-10-25T23:36:41.668Z,1.77
2022-10-25T23:39:10.129Z,1.38
2022-10-25T23:41:39.315Z,1.05
2022-10-25T23:44:07.809Z,0.70
2022-10-25T23:46:36.491Z,0.75
2022-10-25T23:49:05.028Z,1.33
2022-10-25T23:51:35.136Z,1.00
2022-10-25T23:54:04.048Z,2.20
2022-10-25T23:56:32.597Z,1.33
2022-10-25T23:59:01.253Z,0.55
